createdAt,value
2018-12-07T00:00:01.897Z,21.17
2018-12-07T00:02:28.898Z,20.23
2018-12-07T00:04:55.958Z,22.57
2018-12-07T00:07:22.937Z,22.07
2018-12-07T00:09:56.917Z,19.93
2018-12-07T00:12:23.898Z,22.53
2018-12-07T00:14:51.098Z,21.00
2018-12-07T00:17:18.138Z,21.80
2018-12-07T00:19:47.841Z,23.40
2018-12-07T00:22:13.790Z,22.70
2018-12-07T00:24:40.803Z,19.00
2018-12-07T00:27:07.863Z,23.47
2018-12-07T00:29:34.863Z,21.70
2018-12-07T00:32:01.904Z,20.53
2018-12-07T00:34:28.923Z,19.63
2018-12-07T00:36:56.003Z,20.27
2018-12-07T00:39:23.011Z,17.33
2018-12-07T00:41:50.023Z,19.03
2018-12-07T00:44:17.023Z,16.40
2018-12-07T00:46:44.043Z,20.20
2018-12-07T00:49:11.063Z,22.73
2018-12-07T00:51:38.123Z,22.10
2018-12-07T00:54:05.544Z,27.77
2018-12-07T00:56:33.243Z,20.97
2018-12-07T00:59:00.283Z,19.87
2018-12-07T01:01:27.343Z,20.63
2018-12-07T01:03:54.323Z,22.87
2018-12-07T01:06:21.403Z,20.50
2018-12-07T01:08:48.423Z,24.30
2018-12-07T01:11:15.493Z,21.83
2018-12-07T01:13:42.573Z,22.40
2018-12-07T01:16:09.674Z,24.30
2018-12-07T01:18:36.614Z,25.43
2018-12-07T01:21:04.055Z,20.73
2018-12-07T01:23:31.075Z,25.57
2018-12-07T01:25:58.154Z,23.13
2018-12-07T01:28:25.373Z,24.57
2018-12-07T01:30:52.354Z,23.80
2018-12-07T01:33:19.393Z,27.63
2018-12-07T01:35:46.594Z,26.00
2018-12-07T01:38:13.633Z,24.53
2018-12-07T01:40:47.614Z,25.57
2018-12-07T01:43:14.673Z,20.63
2018-12-07T01:45:41.695Z,20.67
2018-12-07T01:48:08.814Z,22.67
2018-12-07T01:50:35.839Z,25.93
2018-12-07T01:53:02.934Z,21.23
2018-12-07T01:55:29.973Z,21.10
2018-12-07T01:57:57.013Z,27.30
2018-12-07T02:00:24.035Z,25.23
2018-12-07T02:02:51.073Z,29.43
2018-12-07T02:05:18.113Z,26.00
2018-12-07T02:07:45.174Z,26.77
2018-12-07T02:10:12.215Z,24.27
2018-12-07T02:12:39.666Z,23.50
2018-12-07T02:15:06.734Z,19.37
2018-12-07T02:17:33.738Z,19.33
2018-12-07T02:20:00.853Z,22.60
2018-12-07T02:22:27.927Z,23.73
2018-12-07T02:25:02.153Z,21.73
2018-12-07T02:27:31.935Z,20.20
2018-12-07T02:30:06.053Z,22.33
2018-12-07T02:32:33.055Z,24.07
2018-12-07T02:34:59.989Z,30.63
2018-12-07T02:37:27.048Z,25.33
2018-12-07T02:39:54.035Z,26.27
2018-12-07T02:42:21.074Z,29.33
2018-12-07T02:44:55.256Z,29.53
2018-12-07T02:47:22.255Z,26.37
2018-12-07T02:49:49.294Z,24.87
2018-12-07T02:52:16.285Z,24.07
2018-12-07T02:54:43.255Z,26.90
2018-12-07T02:57:10.755Z,24.57
2018-12-07T02:59:37.894Z,32.10
2018-12-07T03:02:04.934Z,23.70
2018-12-07T03:04:31.974Z,22.50
2018-12-07T03:07:05.874Z,24.23
2018-12-07T03:09:32.935Z,23.17
2018-12-07T03:11:59.936Z,24.63
2018-12-07T03:14:26.935Z,24.37
2018-12-07T03:16:53.951Z,23.40
2018-12-07T03:19:20.962Z,22.77
2018-12-07T03:21:48.061Z,27.80
2018-12-07T03:24:15.077Z,31.90
2018-12-07T03:26:42.034Z,29.00
2018-12-07T03:29:09.034Z,29.90
2018-12-07T03:31:36.035Z,23.93
2018-12-07T03:34:03.040Z,27.67
2018-12-07T03:36:30.175Z,29.33
2018-12-07T03:38:57.276Z,29.23
2018-12-07T03:41:24.276Z,26.20
2018-12-07T03:43:51.814Z,31.37
2018-12-07T03:46:18.854Z,26.33
2018-12-07T03:48:45.914Z,26.63
2018-12-07T03:51:12.915Z,30.07
2018-12-07T03:53:39.935Z,30.30
2018-12-07T03:56:06.874Z,30.00
2018-12-07T03:58:33.896Z,26.97
2018-12-07T04:01:00.934Z,29.40
2018-12-07T04:03:27.994Z,27.70
2018-12-07T04:05:54.935Z,30.87
2018-12-07T04:08:22.017Z,25.93
2018-12-07T04:10:48.994Z,28.00
2018-12-07T04:13:15.955Z,27.80
2018-12-07T04:15:42.995Z,25.90
2018-12-07T04:18:10.018Z,25.80
2018-12-07T04:20:37.015Z,29.03
2018-12-07T04:23:04.055Z,26.17
2018-12-07T04:25:31.076Z,25.47
2018-12-07T04:27:58.034Z,24.53
2018-12-07T04:30:25.562Z,24.40
2018-12-07T04:32:52.576Z,26.07
2018-12-07T04:35:19.554Z,27.10
2018-12-07T04:37:46.516Z,25.73
2018-12-07T04:40:14.419Z,26.73
2018-12-07T04:42:41.416Z,29.43
2018-12-07T04:48:57.597Z,24.53
2018-12-07T04:51:24.575Z,23.00
2018-12-07T04:53:51.535Z,26.47
2018-12-07T04:56:18.536Z,24.67
2018-12-07T04:58:45.859Z,23.50
2018-12-07T05:01:12.895Z,26.43
2018-12-07T05:03:39.954Z,24.77
2018-12-07T05:06:13.838Z,24.10
2018-12-07T05:08:40.835Z,27.73
2018-12-07T05:11:07.776Z,24.67
2018-12-07T05:13:41.815Z,26.03
2018-12-07T05:16:08.775Z,25.77
2018-12-07T05:18:35.858Z,24.63
2018-12-07T05:21:02.959Z,25.23
2018-12-07T05:23:29.955Z,27.37
2018-12-07T05:25:56.955Z,25.40
2018-12-07T05:28:24.114Z,30.97
2018-12-07T05:30:51.081Z,28.77
2018-12-07T05:33:19.055Z,28.17
2018-12-07T05:35:46.035Z,28.93
2018-12-07T05:38:13.035Z,28.43
2018-12-07T05:40:39.987Z,25.03
2018-12-07T05:43:06.981Z,29.83
2018-12-07T05:45:33.976Z,32.23
2018-12-07T05:48:00.916Z,30.93
2018-12-07T05:50:28.442Z,28.70
2018-12-07T05:52:55.395Z,27.63
2018-12-07T05:55:22.415Z,26.50
2018-12-07T05:57:49.435Z,31.57
2018-12-07T06:00:16.517Z,29.10
2018-12-07T06:02:43.475Z,27.73
2018-12-07T06:05:10.695Z,29.87
2018-12-07T06:07:37.697Z,28.97
2018-12-07T06:10:04.874Z,30.77
2018-12-07T06:12:31.835Z,32.53
2018-12-07T06:14:59.054Z,33.30
2018-12-07T06:17:26.075Z,32.40
2018-12-07T06:19:53.095Z,30.50
2018-12-07T06:22:20.175Z,29.37
2018-12-07T06:24:47.254Z,31.30
2018-12-07T06:27:14.234Z,30.70
2018-12-07T06:29:41.294Z,29.87
2018-12-07T06:32:08.373Z,33.30
2018-12-07T06:34:35.534Z,30.47
2018-12-07T06:37:02.614Z,31.43
2018-12-07T06:39:29.633Z,32.10
2018-12-07T06:41:56.654Z,30.90
2018-12-07T06:44:23.573Z,35.53
2018-12-07T06:46:50.673Z,36.37
2018-12-07T06:49:17.654Z,41.03
2018-12-07T06:51:44.696Z,29.73
2018-12-07T06:54:11.673Z,39.10
2018-12-07T06:56:38.653Z,38.90
2018-12-07T06:59:05.698Z,37.40
2018-12-07T07:01:32.694Z,39.97
2018-12-07T07:03:59.754Z,41.00
2018-12-07T07:06:33.756Z,44.67
2018-12-07T07:09:00.754Z,46.30
2018-12-07T07:11:27.894Z,46.07
2018-12-07T07:13:54.934Z,40.53
2018-12-07T07:16:28.854Z,52.30
2018-12-07T07:18:55.954Z,39.77
2018-12-07T07:21:23.154Z,39.63
2018-12-07T07:23:50.227Z,42.67
2018-12-07T07:26:17.256Z,45.00
2018-12-07T07:28:44.195Z,41.03
2018-12-07T07:31:11.292Z,36.73
2018-12-07T07:33:38.334Z,39.63
2018-12-07T07:36:05.414Z,36.73
2018-12-07T07:38:32.374Z,42.53
2018-12-07T07:41:06.179Z,37.90
2018-12-07T07:43:33.654Z,35.83
2018-12-07T07:46:00.694Z,31.70
2018-12-07T07:48:27.653Z,37.07
2018-12-07T07:53:56.833Z,36.47
2018-12-07T07:56:23.894Z,32.40
2018-12-07T07:58:50.974Z,33.97
2018-12-07T08:01:17.973Z,32.50
2018-12-07T08:03:45.014Z,35.83
2018-12-07T08:06:18.873Z,30.17
2018-12-07T08:08:45.914Z,35.43
2018-12-07T08:11:12.873Z,32.47
2018-12-07T08:13:40.033Z,29.30
2018-12-07T08:16:07.074Z,23.97
2018-12-07T08:18:34.073Z,22.90
2018-12-07T08:21:01.136Z,17.70
2018-12-07T08:23:28.134Z,20.07
2018-12-07T08:25:55.155Z,20.40
2018-12-07T08:28:22.731Z,20.70
2018-12-07T08:30:50.093Z,20.17
2018-12-07T08:33:17.093Z,18.73
2018-12-07T08:35:44.113Z,21.17
2018-12-07T08:38:11.133Z,22.03
2018-12-07T08:40:38.155Z,18.50
2018-12-07T08:43:05.156Z,21.20
2018-12-07T08:45:32.133Z,21.17
2018-12-07T08:47:59.075Z,22.27
2018-12-07T08:50:26.349Z,21.30
2018-12-07T08:52:53.392Z,20.73
2018-12-07T08:55:20.415Z,22.83
2018-12-07T08:57:47.413Z,21.90
2018-12-07T09:00:14.512Z,22.03
2018-12-07T09:02:41.513Z,24.87
2018-12-07T09:05:08.573Z,27.17
2018-12-07T09:07:35.613Z,21.10
2018-12-07T09:10:04.073Z,20.73
2018-12-07T09:12:31.373Z,20.10
2018-12-07T09:14:58.336Z,23.53
2018-12-07T09:17:25.375Z,23.50
2018-12-07T09:19:52.333Z,24.40
2018-12-07T09:22:19.416Z,24.13
2018-12-07T09:24:46.372Z,22.27
2018-12-07T09:27:20.463Z,23.03
2018-12-07T09:29:47.356Z,19.97
2018-12-07T09:32:14.317Z,19.73
2018-12-07T09:34:41.272Z,21.67
2018-12-07T09:37:08.293Z,22.80
2018-12-07T09:39:35.313Z,22.73
2018-12-07T09:42:02.317Z,19.67
2018-12-07T09:44:29.673Z,22.53
2018-12-07T09:46:56.696Z,18.10
2018-12-07T09:49:30.859Z,22.80
2018-12-07T09:51:57.893Z,19.63
2018-12-07T09:54:24.853Z,21.53
2018-12-07T09:56:51.953Z,21.17
2018-12-07T09:59:18.933Z,20.90
2018-12-07T10:01:46.077Z,21.37
2018-12-07T10:04:13.395Z,25.40
2018-12-07T10:06:40.452Z,21.53
2018-12-07T10:09:07.493Z,20.10
2018-12-07T10:11:34.553Z,18.70
2018-12-07T10:14:02.060Z,19.97
2018-12-07T10:16:29.140Z,18.13
2018-12-07T10:18:56.098Z,20.40
2018-12-07T10:21:23.094Z,19.27
2018-12-07T10:23:50.094Z,20.17
2018-12-07T10:26:17.133Z,18.83
2018-12-07T10:28:44.095Z,15.70
2018-12-07T10:31:11.133Z,19.80
2018-12-07T10:33:38.113Z,18.90
2018-12-07T10:36:05.132Z,15.50
2018-12-07T10:38:32.154Z,15.73
2018-12-07T10:40:59.552Z,16.63
2018-12-07T10:43:26.774Z,17.20
2018-12-07T10:45:53.814Z,18.13
2018-12-07T10:48:20.801Z,14.53
2018-12-07T10:50:47.974Z,16.67
2018-12-07T10:53:15.014Z,17.53
2018-12-07T10:55:42.054Z,17.53
2018-12-07T10:58:09.076Z,21.07
2018-12-07T11:00:42.176Z,15.87
2018-12-07T11:03:15.076Z,18.70
2018-12-07T11:05:42.192Z,13.70
2018-12-07T11:08:15.153Z,14.97
2018-12-07T11:10:48.274Z,14.60
2018-12-07T11:13:21.293Z,13.67
2018-12-07T11:15:54.438Z,15.10
2018-12-07T11:18:27.357Z,15.10
2018-12-07T11:21:07.214Z,15.20
2018-12-07T11:26:45.997Z,14.27
2018-12-07T11:29:15.095Z,19.03
2018-12-07T11:31:44.253Z,19.90
2018-12-07T11:34:13.321Z,18.37
2018-12-07T11:36:40.353Z,18.73
2018-12-07T11:39:08.254Z,16.63
2018-12-07T11:41:35.313Z,15.50
2018-12-07T11:44:02.273Z,15.37
2018-12-07T11:46:36.386Z,15.57
2018-12-07T11:49:03.394Z,20.90
2018-12-07T11:51:37.554Z,14.93
2018-12-07T11:57:00.573Z,18.73
2018-12-07T11:59:27.576Z,14.13
2018-12-07T12:01:54.639Z,15.43
2018-12-07T12:04:21.573Z,12.97
2018-12-07T12:06:48.593Z,14.20
2018-12-07T12:09:15.553Z,12.60
2018-12-07T12:11:42.514Z,15.37
2018-12-07T12:14:09.515Z,14.33
2018-12-07T12:16:36.533Z,15.90
2018-12-07T12:19:03.495Z,15.80
2018-12-07T12:21:30.422Z,14.13
2018-12-07T12:23:57.454Z,14.70
2018-12-07T12:26:24.575Z,18.63
2018-12-07T12:28:51.731Z,15.63
2018-12-07T12:31:18.721Z,13.73
2018-12-07T12:33:45.761Z,15.07
2018-12-07T12:36:17.029Z,14.17
2018-12-07T12:38:42.162Z,15.67
2018-12-07T12:41:09.101Z,14.20
2018-12-07T12:43:36.104Z,12.53
2018-12-07T12:46:03.162Z,12.50
2018-12-07T12:48:30.401Z,11.70
2018-12-07T12:50:59.041Z,15.10
2018-12-07T12:53:26.102Z,14.30
2018-12-07T12:55:53.200Z,12.53
2018-12-07T12:58:20.261Z,12.23
2018-12-07T13:00:47.224Z,15.37
2018-12-07T13:03:14.281Z,10.57
2018-12-07T13:05:41.221Z,9.70
2018-12-07T13:08:08.200Z,10.40
2018-12-07T13:10:35.261Z,14.07
2018-12-07T13:13:02.321Z,12.70
2018-12-07T13:15:29.341Z,13.30
2018-12-07T13:18:07.691Z,11.53
2018-12-07T13:20:34.662Z,9.50
2018-12-07T13:23:01.642Z,10.60
2018-12-07T13:25:28.642Z,11.33
2018-12-07T13:27:55.662Z,11.23
2018-12-07T13:30:22.640Z,9.83
2018-12-07T13:32:49.561Z,12.10
2018-12-07T13:35:16.531Z,11.77
2018-12-07T13:37:43.509Z,11.83
2018-12-07T13:40:10.691Z,11.90
2018-12-07T13:42:37.790Z,11.10
2018-12-07T13:45:06.770Z,11.00
2018-12-07T13:47:33.944Z,10.67
2018-12-07T13:50:07.104Z,11.40
2018-12-07T13:52:34.301Z,10.17
2018-12-07T13:55:01.708Z,11.43
2018-12-07T13:57:28.910Z,11.13
2018-12-07T13:59:56.071Z,11.57
2018-12-07T14:02:23.333Z,12.13
2018-12-07T14:04:50.635Z,14.20
2018-12-07T14:07:17.862Z,12.53
2018-12-07T14:09:45.022Z,10.30
2018-12-07T14:12:12.651Z,11.80
2018-12-07T14:14:39.757Z,12.03
2018-12-07T14:17:07.113Z,14.23
2018-12-07T14:19:34.260Z,12.33
2018-12-07T14:22:01.773Z,13.63
2018-12-07T14:24:28.866Z,10.83
2018-12-07T14:26:59.469Z,11.80
2018-12-07T14:29:25.181Z,11.40
2018-12-07T14:31:52.750Z,13.37
2018-12-07T14:34:19.972Z,12.20
2018-12-07T14:36:47.095Z,12.50
2018-12-07T14:39:14.177Z,12.03
2018-12-07T14:41:41.193Z,13.60
2018-12-07T14:44:08.549Z,13.97
2018-12-07T14:46:36.034Z,15.23
2018-12-07T14:49:03.582Z,22.27
2018-12-07T14:51:30.849Z,17.30
2018-12-07T14:53:58.217Z,15.73
2018-12-07T14:56:25.276Z,17.60
2018-12-07T14:58:52.333Z,17.73
2018-12-07T15:01:19.515Z,17.13
2018-12-07T15:03:46.821Z,15.37
2018-12-07T15:06:14.039Z,22.40
2018-12-07T15:08:41.363Z,19.90
2018-12-07T15:11:08.616Z,17.70
2018-12-07T15:13:36.131Z,19.90
2018-12-07T15:16:03.242Z,19.77
2018-12-07T15:18:30.371Z,19.70
2018-12-07T15:20:57.449Z,18.67
2018-12-07T15:23:24.697Z,17.27
2018-12-07T15:25:51.815Z,20.90
2018-12-07T15:28:18.896Z,18.63
2018-12-07T15:30:46.007Z,18.80
2018-12-07T15:33:13.021Z,21.77
2018-12-07T15:35:40.072Z,21.30
2018-12-07T15:38:07.078Z,18.80
2018-12-07T15:40:34.374Z,18.83
2018-12-07T15:43:01.355Z,20.73
2018-12-07T15:45:28.673Z,19.43
2018-12-07T15:47:55.887Z,18.80
2018-12-07T15:50:25.314Z,18.60
2018-12-07T15:52:52.571Z,20.80
2018-12-07T15:55:19.654Z,27.73
2018-12-07T15:57:46.748Z,19.63
2018-12-07T16:00:13.757Z,21.03
2018-12-07T16:02:41.113Z,21.53
2018-12-07T16:05:08.371Z,22.00
2018-12-07T16:07:35.506Z,20.23
2018-12-07T16:10:16.653Z,20.93
2018-12-07T16:12:44.087Z,24.23
2018-12-07T16:15:11.351Z,22.60
2018-12-07T16:17:38.447Z,23.73
2018-12-07T16:20:10.310Z,17.97
2018-12-07T16:22:37.487Z,23.20
2018-12-07T16:25:05.014Z,17.97
2018-12-07T16:27:32.049Z,17.80
2018-12-07T16:29:59.231Z,20.60
2018-12-07T16:32:26.176Z,18.53
2018-12-07T16:34:53.265Z,21.80
2018-12-07T16:37:20.773Z,20.53
2018-12-07T16:39:48.045Z,22.33
2018-12-07T16:42:15.121Z,21.10
2018-12-07T16:44:42.306Z,26.27
2018-12-07T16:47:09.246Z,24.40
2018-12-07T16:49:36.449Z,22.60
2018-12-07T16:52:03.839Z,22.43
2018-12-07T16:54:30.897Z,19.73
2018-12-07T16:56:57.989Z,22.47
2018-12-07T16:59:25.065Z,21.20
2018-12-07T17:01:52.398Z,27.60
2018-12-07T17:04:19.457Z,18.77
2018-12-07T17:06:53.553Z,25.87
2018-12-07T17:09:23.742Z,19.97
2018-12-07T17:11:50.856Z,27.20
2018-12-07T17:14:17.895Z,20.97
2018-12-07T17:16:45.626Z,22.20
2018-12-07T17:19:12.630Z,24.80
2018-12-07T17:21:39.767Z,20.87
2018-12-07T17:24:07.145Z,22.67
2018-12-07T17:26:34.225Z,21.43
2018-12-07T17:29:01.818Z,27.50
2018-12-07T17:31:28.881Z,22.27
2018-12-07T17:33:56.261Z,21.37
2018-12-07T17:36:23.614Z,27.97
2018-12-07T17:38:57.574Z,26.83
2018-12-07T17:41:24.774Z,24.00
2018-12-07T17:43:54.908Z,25.53
2018-12-07T17:46:22.200Z,25.23
2018-12-07T17:48:49.618Z,23.90
2018-12-07T17:51:16.591Z,27.17
2018-12-07T17:53:43.821Z,28.17
2018-12-07T17:56:11.084Z,24.10
2018-12-07T17:58:38.208Z,20.47
2018-12-07T18:01:05.268Z,27.20
2018-12-07T18:03:32.308Z,26.03
2018-12-07T18:05:59.369Z,24.13
2018-12-07T18:08:26.737Z,25.27
2018-12-07T18:10:54.059Z,26.20
2018-12-07T18:13:21.184Z,28.70
2018-12-07T18:15:55.324Z,27.97
2018-12-07T18:18:22.433Z,24.93
2018-12-07T18:20:49.736Z,22.70
2018-12-07T18:23:17.110Z,22.53
2018-12-07T18:25:44.269Z,25.03
2018-12-07T18:28:11.248Z,23.80
2018-12-07T18:30:38.374Z,20.17
2018-12-07T18:33:05.630Z,20.37
2018-12-07T18:35:32.796Z,20.80
2018-12-07T18:37:59.915Z,22.40
2018-12-07T18:40:34.227Z,21.70
2018-12-07T18:43:01.381Z,20.97
2018-12-07T18:45:28.576Z,20.57
2018-12-07T18:47:55.698Z,20.00
2018-12-07T18:50:22.723Z,25.47
2018-12-07T18:52:51.741Z,22.33
2018-12-07T18:55:18.859Z,25.93
2018-12-07T18:57:45.922Z,26.77
2018-12-07T19:00:13.028Z,21.90
2018-12-07T19:02:40.217Z,21.03
2018-12-07T19:05:08.171Z,26.53
2018-12-07T19:07:35.458Z,30.40
2018-12-07T19:10:03.571Z,27.10
2018-12-07T19:12:30.704Z,28.20
2018-12-07T19:14:57.944Z,30.03
2018-12-07T19:17:25.149Z,27.63
2018-12-07T19:19:52.608Z,26.83
2018-12-07T19:22:19.971Z,24.70
2018-12-07T19:24:47.142Z,33.73
2018-12-07T19:27:14.219Z,31.17
2018-12-07T19:29:41.393Z,25.73
2018-12-07T19:32:08.599Z,28.60
2018-12-07T19:34:35.695Z,29.37
2018-12-07T19:37:02.982Z,27.87
2018-12-07T19:39:30.131Z,27.47
2018-12-07T19:41:57.151Z,30.47
2018-12-07T19:44:24.151Z,28.00
2018-12-07T19:46:51.355Z,28.47
2018-12-07T19:49:18.687Z,26.10
2018-12-07T19:51:45.811Z,28.80
2018-12-07T19:54:13.333Z,28.50
2018-12-07T19:56:40.591Z,34.03
2018-12-07T20:02:03.232Z,27.50
2018-12-07T20:04:30.712Z,27.77
2018-12-07T20:06:58.229Z,27.83
2018-12-07T20:09:25.830Z,29.33
2018-12-07T20:11:53.327Z,30.07
2018-12-07T20:14:34.856Z,31.73
2018-12-07T20:17:01.928Z,28.47
2018-12-07T20:19:29.159Z,30.90
2018-12-07T20:21:56.102Z,29.23
2018-12-07T20:24:23.419Z,28.23
2018-12-07T20:26:50.885Z,30.87
2018-12-07T20:29:18.162Z,31.33
2018-12-07T20:31:52.689Z,31.53
2018-12-07T20:34:19.850Z,30.13
2018-12-07T20:36:47.076Z,28.70
2018-12-07T20:39:14.254Z,26.77
2018-12-07T20:41:41.290Z,32.53
2018-12-07T20:44:08.242Z,37.67
2018-12-07T20:46:35.539Z,37.17
2018-12-07T20:49:02.817Z,38.73
2018-12-07T20:51:37.060Z,39.17
2018-12-07T20:54:04.304Z,39.73
2018-12-07T20:56:31.708Z,38.70
2018-12-07T20:58:58.781Z,44.33
2018-12-07T21:01:26.065Z,47.47
2018-12-07T21:07:36.109Z,40.23
2018-12-07T21:17:07.600Z,39.47
2018-12-07T21:19:38.070Z,40.30
2018-12-07T21:22:12.800Z,38.93
2018-12-07T21:24:40.488Z,42.87
2018-12-07T21:27:07.790Z,38.93
2018-12-07T21:29:35.744Z,36.80
2018-12-07T21:32:08.966Z,50.23
2018-12-07T21:34:57.903Z,44.63
2018-12-07T21:37:25.040Z,40.77
2018-12-07T21:39:57.477Z,51.27
2018-12-07T21:42:24.715Z,50.70
2018-12-07T21:45:05.886Z,47.37
2018-12-07T21:51:10.784Z,44.33
2018-12-07T21:53:37.959Z,45.50
2018-12-07T21:56:05.666Z,42.13
2018-12-07T21:58:32.918Z,46.50
2018-12-07T22:01:00.134Z,41.00
2018-12-07T22:03:27.396Z,44.03
2018-12-07T22:05:54.670Z,43.20
2018-12-07T22:08:21.798Z,38.83
2018-12-07T22:10:48.963Z,37.30
2018-12-07T22:13:15.976Z,40.00
2018-12-07T22:15:43.318Z,39.77
2018-12-07T22:18:17.500Z,39.33
2018-12-07T22:20:44.537Z,39.50
2018-12-07T22:23:11.796Z,40.13
2018-12-07T22:25:39.609Z,36.63
2018-12-07T22:28:07.297Z,32.20
2018-12-07T22:30:34.588Z,37.27
2018-12-07T22:33:01.804Z,34.20
2018-12-07T22:35:28.976Z,27.77
2018-12-07T22:37:56.229Z,29.83
2018-12-07T22:40:23.649Z,22.90
2018-12-07T22:42:50.960Z,24.93
2018-12-07T22:45:18.654Z,23.63
2018-12-07T22:47:46.032Z,18.40
2018-12-07T22:50:13.016Z,15.70
2018-12-07T22:52:39.997Z,14.87
2018-12-07T22:55:07.016Z,14.80
2018-12-07T22:57:34.938Z,12.03
2018-12-07T23:00:01.957Z,12.33
2018-12-07T23:02:29.256Z,10.53
2018-12-07T23:04:56.597Z,10.60
2018-12-07T23:07:23.617Z,13.63
2018-12-07T23:09:50.598Z,10.03
2018-12-07T23:12:17.676Z,10.10
2018-12-07T23:14:44.697Z,9.13
2018-12-07T23:17:18.616Z,11.77
2018-12-07T23:19:45.636Z,9.47
2018-12-07T23:22:12.797Z,12.33
2018-12-07T23:24:39.736Z,16.30
2018-12-07T23:27:06.736Z,14.70
2018-12-07T23:29:34.302Z,10.20
2018-12-07T23:32:01.338Z,10.27
2018-12-07T23:34:28.337Z,9.97
2018-12-07T23:36:55.417Z,10.33
2018-12-07T23:39:22.456Z,8.47
2018-12-07T23:41:49.496Z,11.03
2018-12-07T23:44:16.415Z,11.57
2018-12-07T23:46:43.396Z,8.93
2018-12-07T23:49:10.496Z,12.17
2018-12-07T23:51:37.557Z,8.53
2018-12-07T23:54:04.576Z,10.13
2018-12-07T23:56:31.615Z,14.43
2018-12-07T23:58:58.615Z,9.20
